sensor_id;sensor_type;location;lat;lon;timestamp;P1;durP1;ratioP1;P2;durP2;ratioP2
61569;SDS011;47462;59.172;17.196;2022-12-18T00:01:31;20.73;;;10.93;;
61569;SDS011;47462;59.172;17.196;2022-12-18T00:03:58;19.63;;;10.32;;
61569;SDS011;47462;59.172;17.196;2022-12-18T00:06:25;20.77;;;10.80;;
61569;SDS011;47462;59.172;17.196;2022-12-18T00:08:52;16.83;;;9.65;;
61569;SDS011;47462;59.172;17.196;2022-12-18T00:11:20;18.67;;;10.80;;
61569;SDS011;47462;59.172;17.196;2022-12-18T00:13:47;20.75;;;11.05;;
61569;SDS011;47462;59.172;17.196;2022-12-18T00:16:15;18.00;;;11.02;;
61569;SDS011;47462;59.172;17.196;2022-12-18T00:18:45;20.85;;;9.68;;
61569;SDS011;47462;59.172;17.196;2022-12-18T00:21:11;28.07;;;13.10;;
61569;SDS011;47462;59.172;17.196;2022-12-18T00:23:37;21.95;;;10.48;;
61569;SDS011;47462;59.172;17.196;2022-12-18T00:26:04;16.50;;;10.35;;
61569;SDS011;47462;59.172;17.196;2022-12-18T00:28:31;18.45;;;9.73;;
61569;SDS011;47462;59.172;17.196;2022-12-18T00:31:01;20.25;;;11.38;;
61569;SDS011;47462;59.172;17.196;2022-12-18T00:33:26;20.98;;;10.65;;
61569;SDS011;47462;59.172;17.196;2022-12-18T00:35:52;19.60;;;11.50;;
61569;SDS011;47462;59.172;17.196;2022-12-18T00:38:17;17.70;;;9.90;;
61569;SDS011;47462;59.172;17.196;2022-12-18T00:40:43;16.97;;;9.83;;
61569;SDS011;47462;59.172;17.196;2022-12-18T00:43:09;22.23;;;11.77;;
61569;SDS011;47462;59.172;17.196;2022-12-18T00:45:34;25.10;;;11.97;;
61569;SDS011;47462;59.172;17.196;2022-12-18T00:47:59;22.23;;;11.63;;
61569;SDS011;47462;59.172;17.196;2022-12-18T00:50:25;20.97;;;10.67;;
61569;SDS011;47462;59.172;17.196;2022-12-18T00:52:51;20.23;;;10.77;;
61569;SDS011;47462;59.172;17.196;2022-12-18T00:57:42;23.05;;;11.00;;
61569;SDS011;47462;59.172;17.196;2022-12-18T01:00:10;23.60;;;10.23;;
61569;SDS011;47462;59.172;17.196;2022-12-18T01:02:38;25.13;;;11.00;;
61569;SDS011;47462;59.172;17.196;2022-12-18T01:05:04;21.48;;;10.40;;
61569;SDS011;47462;59.172;17.196;2022-12-18T01:07:29;24.02;;;9.40;;
61569;SDS011;47462;59.172;17.196;2022-12-18T01:09:55;21.27;;;10.27;;
61569;SDS011;47462;59.172;17.196;2022-12-18T01:12:20;20.03;;;10.10;;
61569;SDS011;47462;59.172;17.196;2022-12-18T01:14:46;17.77;;;10.20;;
61569;SDS011;47462;59.172;17.196;2022-12-18T01:17:11;20.47;;;10.90;;
61569;SDS011;47462;59.172;17.196;2022-12-18T01:19:36;17.93;;;9.30;;
61569;SDS011;47462;59.172;17.196;2022-12-18T01:22:02;22.30;;;10.17;;
61569;SDS011;47462;59.172;17.196;2022-12-18T01:24:28;21.90;;;10.35;;
61569;SDS011;47462;59.172;17.196;2022-12-18T01:26:53;18.47;;;10.13;;
61569;SDS011;47462;59.172;17.196;2022-12-18T01:29:19;23.43;;;11.13;;
61569;SDS011;47462;59.172;17.196;2022-12-18T01:31:44;26.30;;;9.63;;
61569;SDS011;47462;59.172;17.196;2022-12-18T01:34:09;20.00;;;10.23;;
61569;SDS011;47462;59.172;17.196;2022-12-18T01:36:36;20.95;;;11.05;;
61569;SDS011;47462;59.172;17.196;2022-12-18T01:39:06;20.13;;;10.40;;
61569;SDS011;47462;59.172;17.196;2022-12-18T01:41:33;18.95;;;10.63;;
61569;SDS011;47462;59.172;17.196;2022-12-18T01:49:56;19.63;;;10.57;;
61569;SDS011;47462;59.172;17.196;2022-12-18T01:52:23;19.02;;;10.07;;
61569;SDS011;47462;59.172;17.196;2022-12-18T01:54:53;18.45;;;10.55;;
61569;SDS011;47462;59.172;17.196;2022-12-18T01:57:19;20.13;;;10.32;;
61569;SDS011;47462;59.172;17.196;2022-12-18T01:59:46;20.23;;;10.38;;
61569;SDS011;47462;59.172;17.196;2022-12-18T02:02:17;22.65;;;9.98;;
61569;SDS011;47462;59.172;17.196;2022-12-18T02:04:43;18.92;;;10.32;;
61569;SDS011;47462;59.172;17.196;2022-12-18T02:07:17;21.97;;;10.17;;
61569;SDS011;47462;59.172;17.196;2022-12-18T02:12:18;18.20;;;10.00;;
61569;SDS011;47462;59.172;17.196;2022-12-18T02:14:58;16.23;;;9.40;;
61569;SDS011;47462;59.172;17.196;2022-12-18T02:17:42;19.55;;;10.32;;
61569;SDS011;47462;59.172;17.196;2022-12-18T02:25:40;20.40;;;9.45;;
61569;SDS011;47462;59.172;17.196;2022-12-18T02:30:34;17.80;;;9.77;;
61569;SDS011;47462;59.172;17.196;2022-12-18T02:33:04;18.63;;;9.25;;
61569;SDS011;47462;59.172;17.196;2022-12-18T02:35:31;16.75;;;8.95;;
61569;SDS011;47462;59.172;17.196;2022-12-18T02:37:58;17.83;;;9.80;;
61569;SDS011;47462;59.172;17.196;2022-12-18T02:40:25;17.92;;;9.30;;
61569;SDS011;47462;59.172;17.196;2022-12-18T02:42:52;21.42;;;9.52;;
61569;SDS011;47462;59.172;17.196;2022-12-18T02:45:17;17.37;;;8.67;;
61569;SDS011;47462;59.172;17.196;2022-12-18T02:47:43;18.00;;;9.10;;
61569;SDS011;47462;59.172;17.196;2022-12-18T02:50:22;18.95;;;9.45;;
61569;SDS011;47462;59.172;17.196;2022-12-18T02:53:04;19.90;;;9.73;;
61569;SDS011;47462;59.172;17.196;2022-12-18T02:58:13;22.95;;;10.98;;
61569;SDS011;47462;59.172;17.196;2022-12-18T03:00:43;19.08;;;11.07;;
61569;SDS011;47462;59.172;17.196;2022-12-18T03:06:30;18.80;;;11.05;;
61569;SDS011;47462;59.172;17.196;2022-12-18T03:09:03;17.85;;;9.80;;
61569;SDS011;47462;59.172;17.196;2022-12-18T03:11:43;18.23;;;9.07;;
61569;SDS011;47462;59.172;17.196;2022-12-18T03:14:56;17.30;;;9.40;;
61569;SDS011;47462;59.172;17.196;2022-12-18T03:17:29;21.10;;;9.23;;
61569;SDS011;47462;59.172;17.196;2022-12-18T03:19:57;16.15;;;8.95;;
61569;SDS011;47462;59.172;17.196;2022-12-18T03:22:27;16.30;;;9.20;;
61569;SDS011;47462;59.172;17.196;2022-12-18T03:24:57;15.05;;;8.43;;
61569;SDS011;47462;59.172;17.196;2022-12-18T03:27:26;18.20;;;8.80;;
61569;SDS011;47462;59.172;17.196;2022-12-18T03:30:05;18.98;;;8.68;;
61569;SDS011;47462;59.172;17.196;2022-12-18T03:32:47;15.93;;;9.10;;
61569;SDS011;47462;59.172;17.196;2022-12-18T03:35:19;17.00;;;8.93;;
61569;SDS011;47462;59.172;17.196;2022-12-18T03:37:47;19.45;;;10.30;;
61569;SDS011;47462;59.172;17.196;2022-12-18T03:40:13;22.15;;;10.30;;
61569;SDS011;47462;59.172;17.196;2022-12-18T03:42:43;15.97;;;10.20;;
61569;SDS011;47462;59.172;17.196;2022-12-18T03:47:44;17.10;;;10.32;;
61569;SDS011;47462;59.172;17.196;2022-12-18T03:50:19;16.90;;;9.55;;
61569;SDS011;47462;59.172;17.196;2022-12-18T03:52:56;16.10;;;9.10;;
61569;SDS011;47462;59.172;17.196;2022-12-18T03:55:26;16.30;;;8.88;;
61569;SDS011;47462;59.172;17.196;2022-12-18T03:57:56;19.45;;;9.55;;
61569;SDS011;47462;59.172;17.196;2022-12-18T04:00:22;16.52;;;8.98;;
61569;SDS011;47462;59.172;17.196;2022-12-18T04:02:49;14.33;;;7.63;;
61569;SDS011;47462;59.172;17.196;2022-12-18T04:05:18;16.65;;;7.95;;
61569;SDS011;47462;59.172;17.196;2022-12-18T04:07:45;18.33;;;9.10;;
61569;SDS011;47462;59.172;17.196;2022-12-18T04:10:13;20.40;;;9.20;;
61569;SDS011;47462;59.172;17.196;2022-12-18T04:12:40;19.13;;;9.18;;
61569;SDS011;47462;59.172;17.196;2022-12-18T04:15:06;15.63;;;9.30;;
61569;SDS011;47462;59.172;17.196;2022-12-18T04:17:33;14.48;;;8.50;;
61569;SDS011;47462;59.172;17.196;2022-12-18T04:19:58;15.10;;;8.70;;
61569;SDS011;47462;59.172;17.196;2022-12-18T04:22:23;14.00;;;9.10;;
61569;SDS011;47462;59.172;17.196;2022-12-18T04:24:49;17.00;;;9.00;;
61569;SDS011;47462;59.172;17.196;2022-12-18T04:27:14;14.40;;;8.37;;
61569;SDS011;47462;59.172;17.196;2022-12-18T04:29:40;15.80;;;8.30;;
61569;SDS011;47462;59.172;17.196;2022-12-18T04:32:05;15.95;;;8.75;;
61569;SDS011;47462;59.172;17.196;2022-12-18T04:34:31;15.43;;;8.68;;
61569;SDS011;47462;59.172;17.196;2022-12-18T04:36:57;19.80;;;8.90;;
61569;SDS011;47462;59.172;17.196;2022-12-18T04:39:22;15.80;;;8.60;;
61569;SDS011;47462;59.172;17.196;2022-12-18T04:41:48;17.27;;;8.93;;
61569;SDS011;47462;59.172;17.196;2022-12-18T04:44:13;14.30;;;9.13;;
61569;SDS011;47462;59.172;17.196;2022-12-18T04:46:38;14.57;;;8.68;;
61569;SDS011;47462;59.172;17.196;2022-12-18T04:49:04;14.83;;;8.57;;
61569;SDS011;47462;59.172;17.196;2022-12-18T04:51:29;17.17;;;8.90;;
61569;SDS011;47462;59.172;17.196;2022-12-18T04:53:55;14.07;;;8.17;;
61569;SDS011;47462;59.172;17.196;2022-12-18T04:56:20;13.87;;;8.77;;
61569;SDS011;47462;59.172;17.196;2022-12-18T04:58:46;18.52;;;10.50;;
61569;SDS011;47462;59.172;17.196;2022-12-18T05:01:12;14.87;;;8.67;;
61569;SDS011;47462;59.172;17.196;2022-12-18T05:03:39;15.05;;;7.93;;
61569;SDS011;47462;59.172;17.196;2022-12-18T05:06:06;14.57;;;7.78;;
61569;SDS011;47462;59.172;17.196;2022-12-18T05:08:32;14.50;;;7.95;;
61569;SDS011;47462;59.172;17.196;2022-12-18T05:10:58;12.83;;;7.40;;
61569;SDS011;47462;59.172;17.196;2022-12-18T05:13:28;17.35;;;8.18;;
61569;SDS011;47462;59.172;17.196;2022-12-18T05:15:54;18.20;;;8.98;;
61569;SDS011;47462;59.172;17.196;2022-12-18T05:18:20;17.35;;;7.88;;
61569;SDS011;47462;59.172;17.196;2022-12-18T05:20:46;21.23;;;8.90;;
61569;SDS011;47462;59.172;17.196;2022-12-18T05:23:12;14.07;;;7.53;;
61569;SDS011;47462;59.172;17.196;2022-12-18T05:25:37;17.10;;;8.37;;
61569;SDS011;47462;59.172;17.196;2022-12-18T05:28:03;17.63;;;8.97;;
61569;SDS011;47462;59.172;17.196;2022-12-18T05:30:28;16.37;;;8.30;;
61569;SDS011;47462;59.172;17.196;2022-12-18T05:32:53;17.40;;;7.93;;
61569;SDS011;47462;59.172;17.196;2022-12-18T05:35:20;16.77;;;7.97;;
61569;SDS011;47462;59.172;17.196;2022-12-18T05:37:46;16.48;;;8.05;;
61569;SDS011;47462;59.172;17.196;2022-12-18T05:40:11;13.67;;;7.60;;
61569;SDS011;47462;59.172;17.196;2022-12-18T05:42:37;31.10;;;9.75;;
61569;SDS011;47462;59.172;17.196;2022-12-18T05:45:03;14.90;;;8.30;;
61569;SDS011;47462;59.172;17.196;2022-12-18T05:47:30;14.50;;;8.55;;
61569;SDS011;47462;59.172;17.196;2022-12-18T05:49:55;13.63;;;7.80;;
61569;SDS011;47462;59.172;17.196;2022-12-18T05:52:21;13.43;;;8.50;;
61569;SDS011;47462;59.172;17.196;2022-12-18T05:54:46;14.20;;;8.63;;
61569;SDS011;47462;59.172;17.196;2022-12-18T05:57:12;15.67;;;8.60;;
61569;SDS011;47462;59.172;17.196;2022-12-18T05:59:37;16.50;;;8.90;;
61569;SDS011;47462;59.172;17.196;2022-12-18T06:02:03;15.00;;;8.03;;
61569;SDS011;47462;59.172;17.196;2022-12-18T06:04:28;14.13;;;8.40;;
61569;SDS011;47462;59.172;17.196;2022-12-18T06:06:54;15.15;;;8.43;;
61569;SDS011;47462;59.172;17.196;2022-12-18T06:09:19;13.60;;;7.53;;
61569;SDS011;47462;59.172;17.196;2022-12-18T06:11:45;17.43;;;7.90;;
61569;SDS011;47462;59.172;17.196;2022-12-18T06:14:11;13.33;;;8.10;;
61569;SDS011;47462;59.172;17.196;2022-12-18T06:16:36;14.10;;;8.20;;
61569;SDS011;47462;59.172;17.196;2022-12-18T06:19:03;15.77;;;7.97;;
61569;SDS011;47462;59.172;17.196;2022-12-18T06:21:30;15.63;;;7.68;;
61569;SDS011;47462;59.172;17.196;2022-12-18T06:23:57;11.98;;;7.70;;
61569;SDS011;47462;59.172;17.196;2022-12-18T06:26:23;13.57;;;7.97;;
61569;SDS011;47462;59.172;17.196;2022-12-18T06:28:49;12.60;;;7.45;;
61569;SDS011;47462;59.172;17.196;2022-12-18T06:31:14;18.80;;;8.47;;
61569;SDS011;47462;59.172;17.196;2022-12-18T06:33:40;15.52;;;8.43;;
61569;SDS011;47462;59.172;17.196;2022-12-18T06:36:07;16.33;;;7.85;;
61569;SDS011;47462;59.172;17.196;2022-12-18T06:38:41;14.57;;;8.95;;
61569;SDS011;47462;59.172;17.196;2022-12-18T06:41:08;18.38;;;7.30;;
61569;SDS011;47462;59.172;17.196;2022-12-18T06:43:35;13.57;;;7.20;;
61569;SDS011;47462;59.172;17.196;2022-12-18T06:46:04;14.88;;;8.43;;
61569;SDS011;47462;59.172;17.196;2022-12-18T06:48:30;15.45;;;8.38;;
61569;SDS011;47462;59.172;17.196;2022-12-18T06:50:58;17.17;;;8.07;;
61569;SDS011;47462;59.172;17.196;2022-12-18T06:53:24;14.60;;;7.90;;
61569;SDS011;47462;59.172;17.196;2022-12-18T06:55:49;49.17;;;26.80;;
61569;SDS011;47462;59.172;17.196;2022-12-18T06:58:15;19.67;;;9.60;;
61569;SDS011;47462;59.172;17.196;2022-12-18T07:00:41;14.10;;;7.43;;
61569;SDS011;47462;59.172;17.196;2022-12-18T07:03:06;16.17;;;8.88;;
61569;SDS011;47462;59.172;17.196;2022-12-18T07:05:31;14.37;;;8.57;;
61569;SDS011;47462;59.172;17.196;2022-12-18T07:07:57;14.10;;;7.27;;
61569;SDS011;47462;59.172;17.196;2022-12-18T07:10:23;18.73;;;8.40;;
61569;SDS011;47462;59.172;17.196;2022-12-18T07:12:48;18.13;;;8.80;;
61569;SDS011;47462;59.172;17.196;2022-12-18T07:15:13;17.03;;;8.97;;
61569;SDS011;47462;59.172;17.196;2022-12-18T07:17:39;14.07;;;8.63;;
61569;SDS011;47462;59.172;17.196;2022-12-18T07:20:04;14.47;;;7.90;;
61569;SDS011;47462;59.172;17.196;2022-12-18T07:22:30;12.90;;;7.55;;
61569;SDS011;47462;59.172;17.196;2022-12-18T07:24:55;14.88;;;8.57;;
61569;SDS011;47462;59.172;17.196;2022-12-18T07:27:21;21.37;;;10.07;;
61569;SDS011;47462;59.172;17.196;2022-12-18T07:29:49;12.80;;;8.45;;
61569;SDS011;47462;59.172;17.196;2022-12-18T07:32:15;18.20;;;9.68;;
61569;SDS011;47462;59.172;17.196;2022-12-18T07:34:40;21.87;;;9.77;;
61569;SDS011;47462;59.172;17.196;2022-12-18T07:37:06;22.23;;;11.53;;
61569;SDS011;47462;59.172;17.196;2022-12-18T07:39:32;19.35;;;10.30;;
61569;SDS011;47462;59.172;17.196;2022-12-18T07:41:57;19.27;;;11.50;;
61569;SDS011;47462;59.172;17.196;2022-12-18T07:44:41;21.85;;;10.20;;
61569;SDS011;47462;59.172;17.196;2022-12-18T07:47:08;19.85;;;10.55;;
61569;SDS011;47462;59.172;17.196;2022-12-18T07:49:33;24.50;;;11.55;;
61569;SDS011;47462;59.172;17.196;2022-12-18T07:51:58;17.37;;;9.63;;
61569;SDS011;47462;59.172;17.196;2022-12-18T07:54:24;25.52;;;11.57;;
61569;SDS011;47462;59.172;17.196;2022-12-18T07:56:50;23.87;;;11.63;;
61569;SDS011;47462;59.172;17.196;2022-12-18T07:59:16;26.17;;;12.73;;
61569;SDS011;47462;59.172;17.196;2022-12-18T08:04:08;20.10;;;9.90;;
61569;SDS011;47462;59.172;17.196;2022-12-18T08:06:33;17.63;;;10.03;;
61569;SDS011;47462;59.172;17.196;2022-12-18T08:08:59;27.17;;;12.97;;
61569;SDS011;47462;59.172;17.196;2022-12-18T08:11:25;22.77;;;12.18;;
61569;SDS011;47462;59.172;17.196;2022-12-18T08:13:52;21.80;;;9.82;;
61569;SDS011;47462;59.172;17.196;2022-12-18T08:16:18;22.38;;;10.95;;
61569;SDS011;47462;59.172;17.196;2022-12-18T08:18:44;16.30;;;9.23;;
61569;SDS011;47462;59.172;17.196;2022-12-18T08:21:11;20.90;;;11.43;;
61569;SDS011;47462;59.172;17.196;2022-12-18T08:23:39;21.75;;;12.00;;
61569;SDS011;47462;59.172;17.196;2022-12-18T08:26:04;19.25;;;9.52;;
61569;SDS011;47462;59.172;17.196;2022-12-18T08:28:30;30.05;;;14.85;;
61569;SDS011;47462;59.172;17.196;2022-12-18T08:30:56;28.47;;;14.40;;
61569;SDS011;47462;59.172;17.196;2022-12-18T08:33:22;23.70;;;12.95;;
61569;SDS011;47462;59.172;17.196;2022-12-18T08:35:47;29.90;;;16.30;;
61569;SDS011;47462;59.172;17.196;2022-12-18T08:38:12;23.77;;;12.87;;
61569;SDS011;47462;59.172;17.196;2022-12-18T08:40:38;31.47;;;18.10;;
61569;SDS011;47462;59.172;17.196;2022-12-18T08:43:03;19.80;;;12.43;;
61569;SDS011;47462;59.172;17.196;2022-12-18T08:45:47;20.52;;;12.55;;
61569;SDS011;47462;59.172;17.196;2022-12-18T08:48:12;24.93;;;12.13;;
61569;SDS011;47462;59.172;17.196;2022-12-18T08:50:38;25.50;;;13.98;;
61569;SDS011;47462;59.172;17.196;2022-12-18T08:53:03;21.83;;;11.40;;
61569;SDS011;47462;59.172;17.196;2022-12-18T08:55:29;22.83;;;11.70;;
61569;SDS011;47462;59.172;17.196;2022-12-18T08:57:54;18.80;;;11.10;;
61569;SDS011;47462;59.172;17.196;2022-12-18T09:00:19;24.13;;;11.60;;
61569;SDS011;47462;59.172;17.196;2022-12-18T09:02:45;23.08;;;10.43;;
61569;SDS011;47462;59.172;17.196;2022-12-18T09:05:10;21.70;;;10.90;;
61569;SDS011;47462;59.172;17.196;2022-12-18T09:07:36;19.70;;;10.57;;
61569;SDS011;47462;59.172;17.196;2022-12-18T09:10:02;21.67;;;11.32;;
61569;SDS011;47462;59.172;17.196;2022-12-18T09:12:28;20.27;;;11.10;;
61569;SDS011;47462;59.172;17.196;2022-12-18T09:14:56;17.73;;;10.67;;
61569;SDS011;47462;59.172;17.196;2022-12-18T09:17:22;17.17;;;10.63;;
61569;SDS011;47462;59.172;17.196;2022-12-18T09:19:47;20.75;;;9.93;;
61569;SDS011;47462;59.172;17.196;2022-12-18T09:22:13;19.07;;;10.43;;
61569;SDS011;47462;59.172;17.196;2022-12-18T09:24:38;14.70;;;9.63;;
61569;SDS011;47462;59.172;17.196;2022-12-18T09:27:04;21.57;;;10.10;;
61569;SDS011;47462;59.172;17.196;2022-12-18T09:29:29;17.77;;;9.63;;
61569;SDS011;47462;59.172;17.196;2022-12-18T09:31:54;19.10;;;10.93;;
61569;SDS011;47462;59.172;17.196;2022-12-18T09:34:20;16.63;;;9.57;;
61569;SDS011;47462;59.172;17.196;2022-12-18T09:36:48;16.70;;;10.23;;
61569;SDS011;47462;59.172;17.196;2022-12-18T09:39:14;18.88;;;10.48;;
61569;SDS011;47462;59.172;17.196;2022-12-18T09:46:54;16.52;;;10.35;;
61569;SDS011;47462;59.172;17.196;2022-12-18T09:49:30;19.90;;;10.75;;
61569;SDS011;47462;59.172;17.196;2022-12-18T09:52:02;18.77;;;10.32;;
61569;SDS011;47462;59.172;17.196;2022-12-18T09:54:40;16.48;;;11.00;;
61569;SDS011;47462;59.172;17.196;2022-12-18T09:57:15;16.77;;;10.55;;
61569;SDS011;47462;59.172;17.196;2022-12-18T09:59:46;16.63;;;10.38;;
61569;SDS011;47462;59.172;17.196;2022-12-18T10:02:19;21.45;;;9.85;;
61569;SDS011;47462;59.172;17.196;2022-12-18T10:04:53;15.77;;;10.00;;
61569;SDS011;47462;59.172;17.196;2022-12-18T10:07:37;17.13;;;9.32;;
61569;SDS011;47462;59.172;17.196;2022-12-18T10:16:25;17.95;;;9.57;;
61569;SDS011;47462;59.172;17.196;2022-12-18T10:21:48;14.48;;;9.20;;
61569;SDS011;47462;59.172;17.196;2022-12-18T10:24:26;18.48;;;10.07;;
61569;SDS011;47462;59.172;17.196;2022-12-18T10:27:23;22.58;;;10.18;;
61569;SDS011;47462;59.172;17.196;2022-12-18T10:32:21;15.82;;;10.05;;
61569;SDS011;47462;59.172;17.196;2022-12-18T10:34:49;17.90;;;11.23;;
61569;SDS011;47462;59.172;17.196;2022-12-18T10:37:19;21.85;;;10.75;;
61569;SDS011;47462;59.172;17.196;2022-12-18T10:39:47;17.98;;;10.18;;
61569;SDS011;47462;59.172;17.196;2022-12-18T10:42:32;16.63;;;9.48;;
61569;SDS011;47462;59.172;17.196;2022-12-18T10:45:08;20.75;;;10.10;;
61569;SDS011;47462;59.172;17.196;2022-12-18T10:47:46;17.08;;;10.52;;
61569;SDS011;47462;59.172;17.196;2022-12-18T10:50:32;19.85;;;10.27;;
61569;SDS011;47462;59.172;17.196;2022-12-18T10:53:00;15.88;;;9.88;;
61569;SDS011;47462;59.172;17.196;2022-12-18T10:55:32;17.10;;;10.38;;
61569;SDS011;47462;59.172;17.196;2022-12-18T11:01:15;19.85;;;9.90;;
61569;SDS011;47462;59.172;17.196;2022-12-18T11:06:20;19.13;;;9.95;;
61569;SDS011;47462;59.172;17.196;2022-12-18T11:08:59;20.48;;;10.63;;
61569;SDS011;47462;59.172;17.196;2022-12-18T11:11:28;16.90;;;9.85;;
61569;SDS011;47462;59.172;17.196;2022-12-18T11:14:03;16.42;;;8.82;;
61569;SDS011;47462;59.172;17.196;2022-12-18T11:16:36;21.73;;;10.05;;
61569;SDS011;47462;59.172;17.196;2022-12-18T11:21:40;18.23;;;9.20;;
61569;SDS011;47462;59.172;17.196;2022-12-18T11:24:07;19.33;;;8.80;;
61569;SDS011;47462;59.172;17.196;2022-12-18T11:27:04;15.02;;;8.48;;
61569;SDS011;47462;59.172;17.196;2022-12-18T11:37:49;18.30;;;9.35;;
61569;SDS011;47462;59.172;17.196;2022-12-18T11:40:25;15.63;;;8.45;;
61569;SDS011;47462;59.172;17.196;2022-12-18T11:43:01;19.23;;;8.95;;
61569;SDS011;47462;59.172;17.196;2022-12-18T11:45:35;12.80;;;8.07;;
61569;SDS011;47462;59.172;17.196;2022-12-18T11:53:21;15.27;;;7.90;;
61569;SDS011;47462;59.172;17.196;2022-12-18T12:00:47;14.77;;;7.70;;
61569;SDS011;47462;59.172;17.196;2022-12-18T12:06:24;16.63;;;7.68;;
61569;SDS011;47462;59.172;17.196;2022-12-18T12:09:20;15.35;;;7.25;;
61569;SDS011;47462;59.172;17.196;2022-12-18T12:17:27;16.43;;;7.60;;
61569;SDS011;47462;59.172;17.196;2022-12-18T12:22:55;15.32;;;7.80;;
61569;SDS011;47462;59.172;17.196;2022-12-18T12:25:40;14.55;;;8.25;;
61569;SDS011;47462;59.172;17.196;2022-12-18T12:33:53;16.17;;;7.70;;
61569;SDS011;47462;59.172;17.196;2022-12-18T12:38:57;16.10;;;7.53;;
61569;SDS011;47462;59.172;17.196;2022-12-18T12:41:30;18.15;;;7.55;;
61569;SDS011;47462;59.172;17.196;2022-12-18T12:44:18;14.90;;;6.13;;
61569;SDS011;47462;59.172;17.196;2022-12-18T12:46:48;16.25;;;7.70;;
61569;SDS011;47462;59.172;17.196;2022-12-18T12:49:17;16.13;;;9.48;;
61569;SDS011;47462;59.172;17.196;2022-12-18T12:52:07;18.07;;;7.17;;
61569;SDS011;47462;59.172;17.196;2022-12-18T12:54:41;15.07;;;7.45;;
61569;SDS011;47462;59.172;17.196;2022-12-18T13:00:10;18.92;;;7.10;;
61569;SDS011;47462;59.172;17.196;2022-12-18T13:02:44;14.63;;;6.95;;
61569;SDS011;47462;59.172;17.196;2022-12-18T13:08:00;19.83;;;6.78;;
61569;SDS011;47462;59.172;17.196;2022-12-18T13:10:33;18.48;;;6.55;;
61569;SDS011;47462;59.172;17.196;2022-12-18T13:13:07;13.25;;;6.85;;
61569;SDS011;47462;59.172;17.196;2022-12-18T13:15:41;16.10;;;6.15;;
61569;SDS011;47462;59.172;17.196;2022-12-18T13:25:56;16.05;;;6.63;;
61569;SDS011;47462;59.172;17.196;2022-12-18T13:30:58;16.27;;;6.10;;
61569;SDS011;47462;59.172;17.196;2022-12-18T13:41:43;10.90;;;5.90;;
61569;SDS011;47462;59.172;17.196;2022-12-18T13:44:20;13.63;;;6.03;;
61569;SDS011;47462;59.172;17.196;2022-12-18T13:46:59;19.67;;;7.13;;
61569;SDS011;47462;59.172;17.196;2022-12-18T13:54:52;10.35;;;5.57;;
61569;SDS011;47462;59.172;17.196;2022-12-18T13:57:38;13.73;;;5.72;;
61569;SDS011;47462;59.172;17.196;2022-12-18T14:02:47;9.43;;;4.60;;
61569;SDS011;47462;59.172;17.196;2022-12-18T14:08:10;11.95;;;4.38;;
61569;SDS011;47462;59.172;17.196;2022-12-18T14:10:41;14.52;;;5.07;;
61569;SDS011;47462;59.172;17.196;2022-12-18T14:13:09;15.32;;;6.53;;
61569;SDS011;47462;59.172;17.196;2022-12-18T14:15:41;13.27;;;4.93;;
61569;SDS011;47462;59.172;17.196;2022-12-18T14:20:49;9.63;;;3.92;;
61569;SDS011;47462;59.172;17.196;2022-12-18T14:25:51;11.40;;;4.38;;
61569;SDS011;47462;59.172;17.196;2022-12-18T14:28:16;15.97;;;7.07;;
61569;SDS011;47462;59.172;17.196;2022-12-18T14:30:43;12.82;;;5.22;;
61569;SDS011;47462;59.172;17.196;2022-12-18T14:33:24;11.50;;;3.95;;
61569;SDS011;47462;59.172;17.196;2022-12-18T14:38:34;8.32;;;3.83;;
61569;SDS011;47462;59.172;17.196;2022-12-18T14:41:06;11.90;;;3.70;;
61569;SDS011;47462;59.172;17.196;2022-12-18T14:43:37;7.85;;;3.42;;
61569;SDS011;47462;59.172;17.196;2022-12-18T14:46:04;6.32;;;2.95;;
61569;SDS011;47462;59.172;17.196;2022-12-18T14:48:50;11.63;;;3.78;;
61569;SDS011;47462;59.172;17.196;2022-12-18T14:51:17;11.52;;;3.63;;
61569;SDS011;47462;59.172;17.196;2022-12-18T14:56:25;8.77;;;2.60;;
61569;SDS011;47462;59.172;17.196;2022-12-18T15:01:29;6.50;;;3.13;;
61569;SDS011;47462;59.172;17.196;2022-12-18T15:03:58;7.32;;;3.40;;
61569;SDS011;47462;59.172;17.196;2022-12-18T15:06:26;8.93;;;3.30;;
61569;SDS011;47462;59.172;17.196;2022-12-18T15:08:53;11.13;;;3.40;;
61569;SDS011;47462;59.172;17.196;2022-12-18T15:11:27;8.18;;;3.15;;
61569;SDS011;47462;59.172;17.196;2022-12-18T15:13:54;14.25;;;4.60;;
61569;SDS011;47462;59.172;17.196;2022-12-18T15:16:22;11.07;;;2.97;;
61569;SDS011;47462;59.172;17.196;2022-12-18T15:18:50;8.65;;;3.08;;
61569;SDS011;47462;59.172;17.196;2022-12-18T15:21:17;7.50;;;2.63;;
61569;SDS011;47462;59.172;17.196;2022-12-18T15:26:09;15.00;;;6.23;;
61569;SDS011;47462;59.172;17.196;2022-12-18T15:31:06;11.17;;;3.90;;
61569;SDS011;47462;59.172;17.196;2022-12-18T15:36:19;11.52;;;3.05;;
61569;SDS011;47462;59.172;17.196;2022-12-18T15:38:46;8.57;;;2.75;;
61569;SDS011;47462;59.172;17.196;2022-12-18T15:41:16;8.57;;;1.92;;
61569;SDS011;47462;59.172;17.196;2022-12-18T15:43:43;7.63;;;3.17;;
61569;SDS011;47462;59.172;17.196;2022-12-18T15:46:11;8.30;;;2.80;;
61569;SDS011;47462;59.172;17.196;2022-12-18T15:48:39;11.30;;;2.95;;
61569;SDS011;47462;59.172;17.196;2022-12-18T15:51:26;7.35;;;2.90;;
61569;SDS011;47462;59.172;17.196;2022-12-18T15:53:55;10.88;;;2.70;;
61569;SDS011;47462;59.172;17.196;2022-12-18T15:56:23;6.65;;;2.30;;
61569;SDS011;47462;59.172;17.196;2022-12-18T15:59:11;17.13;;;12.77;;
61569;SDS011;47462;59.172;17.196;2022-12-18T16:01:38;12.68;;;6.32;;
61569;SDS011;47462;59.172;17.196;2022-12-18T16:04:04;10.50;;;3.50;;
61569;SDS011;47462;59.172;17.196;2022-12-18T16:06:29;17.73;;;10.63;;
61569;SDS011;47462;59.172;17.196;2022-12-18T16:08:55;18.47;;;5.33;;
61569;SDS011;47462;59.172;17.196;2022-12-18T16:16:48;9.27;;;3.05;;
61569;SDS011;47462;59.172;17.196;2022-12-18T16:19:16;6.53;;;2.35;;
61569;SDS011;47462;59.172;17.196;2022-12-18T16:21:41;10.82;;;2.63;;
61569;SDS011;47462;59.172;17.196;2022-12-18T16:24:17;11.65;;;2.30;;
61569;SDS011;47462;59.172;17.196;2022-12-18T16:26:44;12.00;;;4.72;;
61569;SDS011;47462;59.172;17.196;2022-12-18T16:29:10;12.85;;;2.13;;
61569;SDS011;47462;59.172;17.196;2022-12-18T16:31:36;6.93;;;2.20;;
61569;SDS011;47462;59.172;17.196;2022-12-18T16:34:12;12.55;;;7.18;;
61569;SDS011;47462;59.172;17.196;2022-12-18T16:37:04;11.65;;;4.45;;
61569;SDS011;47462;59.172;17.196;2022-12-18T16:39:30;13.80;;;5.18;;
61569;SDS011;47462;59.172;17.196;2022-12-18T16:41:58;13.25;;;5.15;;
61569;SDS011;47462;59.172;17.196;2022-12-18T16:44:24;12.18;;;3.30;;
61569;SDS011;47462;59.172;17.196;2022-12-18T16:46:49;7.18;;;2.03;;
61569;SDS011;47462;59.172;17.196;2022-12-18T16:49:15;11.43;;;2.77;;
61569;SDS011;47462;59.172;17.196;2022-12-18T16:51:42;50.47;;;32.85;;
61569;SDS011;47462;59.172;17.196;2022-12-18T16:54:08;29.75;;;15.25;;
61569;SDS011;47462;59.172;17.196;2022-12-18T16:56:33;18.77;;;9.38;;
61569;SDS011;47462;59.172;17.196;2022-12-18T16:59:00;22.45;;;11.20;;
61569;SDS011;47462;59.172;17.196;2022-12-18T17:01:27;45.30;;;30.35;;
61569;SDS011;47462;59.172;17.196;2022-12-18T17:04:01;29.20;;;18.08;;